createdAt,value
2022-12-01T00:01:26.187Z,19.55
2022-12-01T00:03:54.904Z,19.52
2022-12-01T00:06:23.119Z,20.00
2022-12-01T00:09:06.893Z,19.80
2022-12-01T00:11:35.471Z,18.70
2022-12-01T00:14:04.056Z,19.38
2022-12-01T00:16:34.129Z,18.55
2022-12-01T00:19:02.213Z,20.23
2022-12-01T00:21:30.255Z,16.90
2022-12-01T00:24:01.045Z,18.98
2022-12-01T00:26:29.187Z,14.02
2022-12-01T00:28:59.170Z,16.90
2022-12-01T00:31:28.370Z,18.23
2022-12-01T00:33:57.766Z,19.02
2022-12-01T00:36:26.145Z,17.85
2022-12-01T00:38:55.607Z,19.02
2022-12-01T00:41:25.198Z,19.20
2022-12-01T00:43:53.716Z,18.77
2022-12-01T00:46:22.040Z,18.60
2022-12-01T00:48:50.171Z,19.85
2022-12-01T00:51:19.416Z,19.50
2022-12-01T00:53:47.442Z,16.33
2022-12-01T00:56:15.972Z,18.95
2022-12-01T00:58:43.836Z,17.80
2022-12-01T01:01:11.857Z,18.35
2022-12-01T01:03:40.023Z,18.48
2022-12-01T01:06:14.316Z,18.73
2022-12-01T01:08:43.635Z,16.25
2022-12-01T01:11:11.785Z,19.70
2022-12-01T01:13:40.171Z,20.00
2022-12-01T01:16:14.792Z,20.60
2022-12-01T01:18:42.762Z,17.60
2022-12-01T01:21:14.178Z,17.38
2022-12-01T01:23:46.011Z,18.58
2022-12-01T01:26:16.467Z,17.80
2022-12-01T01:28:44.632Z,17.45
2022-12-01T01:31:14.765Z,18.83
2022-12-01T01:33:43.275Z,18.88
2022-12-01T01:36:11.774Z,16.95
2022-12-01T01:38:40.006Z,18.58
2022-12-01T01:41:09.838Z,18.52
2022-12-01T01:43:43.142Z,19.40
2022-12-01T01:46:13.520Z,15.73
2022-12-01T01:48:43.122Z,17.80
2022-12-01T01:51:14.452Z,19.25
2022-12-01T01:53:44.371Z,19.53
2022-12-01T01:56:13.697Z,16.40
2022-12-01T01:58:42.593Z,17.73
2022-12-01T02:01:12.898Z,17.85
2022-12-01T02:03:42.696Z,20.15
2022-12-01T02:06:12.390Z,17.85
2022-12-01T02:08:40.434Z,17.10
2022-12-01T02:11:48.518Z,19.13
2022-12-01T02:14:35.194Z,18.05
2022-12-01T02:17:13.485Z,18.02
2022-12-01T02:20:23.596Z,17.02
2022-12-01T02:23:13.524Z,19.63
2022-12-01T02:25:51.597Z,19.92
2022-12-01T02:28:44.444Z,16.98
2022-12-01T02:31:18.551Z,18.90
2022-12-01T02:33:55.410Z,18.13
2022-12-01T02:36:32.498Z,17.92
2022-12-01T02:39:07.156Z,19.30
2022-12-01T02:41:43.744Z,17.67
2022-12-01T02:44:19.801Z,17.60
2022-12-01T02:46:53.928Z,19.67
2022-12-01T02:49:27.075Z,17.33
2022-12-01T02:51:58.307Z,19.50
2022-12-01T02:54:30.025Z,17.35
2022-12-01T02:56:58.368Z,18.15
2022-12-01T02:59:26.472Z,21.15
2022-12-01T03:02:07.230Z,17.52
2022-12-01T03:04:47.255Z,18.92
2022-12-01T03:07:28.162Z,19.90
2022-12-01T03:10:05.957Z,17.83
2022-12-01T03:12:41.453Z,17.05
2022-12-01T03:15:24.941Z,18.38
2022-12-01T03:18:00.621Z,17.90
2022-12-01T03:20:35.311Z,18.70
2022-12-01T03:23:09.691Z,19.67
2022-12-01T03:25:40.961Z,17.33
2022-12-01T03:28:21.103Z,17.92
2022-12-01T03:30:53.693Z,18.45
2022-12-01T03:33:28.323Z,20.60
2022-12-01T03:36:00.804Z,18.27
2022-12-01T03:38:32.006Z,20.13
2022-12-01T03:41:03.109Z,19.52
2022-12-01T03:43:34.976Z,18.05
2022-12-01T03:46:12.996Z,21.83
2022-12-01T03:48:43.409Z,18.45
2022-12-01T03:51:16.956Z,17.40
2022-12-01T03:53:52.597Z,19.55
2022-12-01T03:56:23.336Z,19.80
2022-12-01T03:58:53.813Z,18.45
2022-12-01T04:01:22.422Z,18.90
2022-12-01T04:03:51.794Z,17.55
2022-12-01T04:06:20.064Z,18.13
2022-12-01T04:08:48.341Z,17.77
2022-12-01T04:11:33.805Z,19.38
2022-12-01T04:14:01.726Z,19.40
2022-12-01T04:16:29.788Z,19.65
2022-12-01T04:18:59.157Z,16.58
2022-12-01T04:21:27.148Z,19.08
2022-12-01T04:24:03.553Z,19.90
2022-12-01T04:26:33.277Z,18.25
2022-12-01T04:29:01.755Z,17.77
2022-12-01T04:31:29.857Z,19.52
2022-12-01T04:34:00.013Z,17.50
2022-12-01T04:36:32.313Z,19.52
2022-12-01T04:39:00.682Z,19.45
2022-12-01T04:41:28.952Z,20.13
2022-12-01T04:43:57.208Z,19.20
2022-12-01T04:46:25.844Z,18.75
2022-12-01T04:48:54.028Z,19.20
2022-12-01T04:51:23.667Z,19.00
2022-12-01T04:53:52.023Z,16.75
2022-12-01T04:56:20.426Z,18.42
2022-12-01T04:58:48.531Z,20.23
2022-12-01T05:01:18.728Z,18.38
2022-12-01T05:03:50.256Z,19.58
2022-12-01T05:06:20.691Z,18.33
2022-12-01T05:08:50.678Z,17.13
2022-12-01T05:11:19.285Z,21.38
2022-12-01T05:13:48.459Z,19.55
2022-12-01T05:16:18.261Z,18.30
2022-12-01T05:18:50.288Z,16.77
2022-12-01T05:21:17.885Z,18.17
2022-12-01T05:23:46.112Z,17.02
2022-12-01T05:26:15.565Z,19.13
2022-12-01T05:28:43.531Z,18.38
2022-12-01T05:31:11.566Z,18.40
2022-12-01T05:33:39.681Z,18.42
2022-12-01T05:36:08.101Z,18.52
2022-12-01T05:38:36.010Z,16.98
2022-12-01T05:41:04.023Z,19.20
2022-12-01T05:43:33.301Z,17.13
2022-12-01T05:46:01.330Z,18.50
2022-12-01T05:48:29.374Z,18.48
2022-12-01T05:50:57.317Z,17.45
2022-12-01T05:53:25.243Z,16.23
2022-12-01T05:55:54.503Z,16.83
2022-12-01T05:58:22.544Z,16.80
2022-12-01T06:00:51.859Z,18.05
2022-12-01T06:03:19.968Z,18.05
2022-12-01T06:05:47.940Z,18.33
2022-12-01T06:08:16.000Z,17.40
2022-12-01T06:10:44.404Z,16.15
2022-12-01T06:13:14.878Z,17.67
2022-12-01T06:15:42.870Z,17.15
2022-12-01T06:18:12.455Z,16.63
2022-12-01T06:20:40.394Z,16.88
2022-12-01T06:23:10.587Z,17.50
2022-12-01T06:25:38.483Z,16.95
2022-12-01T06:28:06.449Z,16.55
2022-12-01T06:30:34.378Z,16.67
2022-12-01T06:33:02.322Z,18.25
2022-12-01T06:35:31.624Z,17.33
2022-12-01T06:37:59.599Z,16.75
2022-12-01T06:40:27.566Z,17.25
2022-12-01T06:42:55.487Z,16.40
2022-12-01T06:45:23.563Z,17.33
2022-12-01T06:47:54.532Z,18.15
2022-12-01T06:50:22.487Z,17.65
2022-12-01T06:52:52.801Z,16.55
2022-12-01T06:55:20.835Z,16.83
2022-12-01T06:57:49.041Z,19.33
2022-12-01T07:00:18.265Z,17.70
2022-12-01T07:02:47.274Z,19.70
2022-12-01T07:05:15.409Z,18.60
2022-12-01T07:07:43.380Z,18.42
2022-12-01T07:10:14.225Z,18.83
2022-12-01T07:12:42.413Z,19.40
2022-12-01T07:15:11.124Z,18.05
2022-12-01T07:17:39.093Z,18.77
2022-12-01T07:20:10.164Z,20.25
2022-12-01T07:22:38.782Z,17.30
2022-12-01T07:25:07.806Z,17.88
2022-12-01T07:27:37.172Z,18.08
2022-12-01T07:30:05.956Z,18.05
2022-12-01T07:32:33.954Z,17.85
2022-12-01T07:35:01.882Z,18.92
2022-12-01T07:37:30.034Z,18.80
2022-12-01T07:39:57.965Z,16.85
2022-12-01T07:42:25.930Z,18.38
2022-12-01T07:44:55.258Z,18.77
2022-12-01T07:47:23.295Z,20.15
2022-12-01T07:49:51.401Z,19.15
2022-12-01T07:52:22.344Z,20.40
2022-12-01T07:54:50.182Z,20.70
2022-12-01T07:57:19.554Z,20.63
2022-12-01T07:59:47.786Z,19.33
2022-12-01T08:02:20.311Z,20.77
2022-12-01T08:04:48.272Z,20.85
2022-12-01T08:07:16.236Z,20.88
2022-12-01T08:09:44.949Z,21.17
2022-12-01T08:12:12.953Z,21.90
2022-12-01T08:14:40.901Z,20.17
2022-12-01T08:17:08.792Z,19.13
2022-12-01T08:19:40.102Z,19.30
2022-12-01T08:22:08.012Z,21.52
2022-12-01T08:24:35.973Z,19.27
2022-12-01T08:27:04.108Z,20.23
2022-12-01T08:29:32.125Z,20.13
2022-12-01T08:32:02.346Z,20.17
2022-12-01T08:34:31.994Z,21.30
2022-12-01T08:37:01.308Z,22.02
2022-12-01T08:39:29.465Z,21.08
2022-12-01T08:41:57.386Z,19.80
2022-12-01T08:44:25.326Z,19.52
2022-12-01T08:46:54.516Z,19.40
2022-12-01T08:49:23.055Z,21.42
2022-12-01T08:51:51.070Z,21.13
2022-12-01T08:54:20.384Z,21.02
2022-12-01T08:56:48.423Z,20.67
2022-12-01T08:59:16.498Z,19.95
2022-12-01T09:01:53.284Z,20.15
2022-12-01T09:04:22.955Z,20.25
2022-12-01T09:06:52.518Z,21.75
2022-12-01T09:09:23.967Z,22.08
2022-12-01T09:11:53.356Z,23.67
2022-12-01T09:14:23.212Z,20.63
2022-12-01T09:16:51.794Z,23.25
2022-12-01T09:19:24.662Z,21.58
2022-12-01T09:21:53.774Z,23.33
2022-12-01T09:24:23.280Z,22.55
2022-12-01T09:26:51.566Z,22.48
2022-12-01T09:29:19.474Z,22.35
2022-12-01T09:31:47.453Z,21.17
2022-12-01T09:34:17.834Z,20.77
2022-12-01T09:36:46.868Z,20.42
2022-12-01T09:39:17.081Z,22.33
2022-12-01T09:41:51.011Z,22.17
2022-12-01T09:44:30.844Z,18.95
2022-12-01T09:47:04.556Z,24.77
2022-12-01T09:49:47.571Z,20.48
2022-12-01T09:52:19.788Z,21.27
2022-12-01T09:54:48.613Z,21.80
2022-12-01T09:57:24.623Z,22.25
2022-12-01T09:59:54.058Z,22.05
2022-12-01T10:02:28.826Z,22.73
2022-12-01T10:05:00.413Z,23.40
2022-12-01T10:07:32.500Z,22.42
2022-12-01T10:10:03.027Z,21.25
2022-12-01T10:12:35.156Z,21.38
2022-12-01T10:15:19.554Z,23.70
2022-12-01T10:18:02.266Z,20.85
2022-12-01T10:20:35.394Z,21.30
2022-12-01T10:23:19.499Z,20.90
2022-12-01T10:25:56.994Z,22.70
2022-12-01T10:28:53.834Z,21.88
2022-12-01T10:31:26.761Z,21.13
2022-12-01T10:34:03.174Z,21.40
2022-12-01T10:36:34.223Z,20.60
2022-12-01T10:39:04.667Z,22.07
2022-12-01T10:41:37.121Z,18.80
2022-12-01T10:44:07.959Z,22.10
2022-12-01T10:46:41.941Z,21.92
2022-12-01T10:49:11.851Z,22.08
2022-12-01T10:51:55.064Z,20.42
2022-12-01T10:54:24.175Z,21.27
2022-12-01T10:56:57.029Z,20.88
2022-12-01T10:59:30.402Z,19.38
2022-12-01T11:01:59.676Z,22.02
2022-12-01T11:04:45.353Z,19.65
2022-12-01T11:07:18.527Z,21.23
2022-12-01T11:09:49.387Z,21.30
2022-12-01T11:12:20.562Z,21.10
2022-12-01T11:14:52.181Z,20.92
2022-12-01T11:17:35.990Z,22.10
2022-12-01T11:20:28.582Z,19.02
2022-12-01T11:23:24.406Z,22.35
2022-12-01T11:26:03.148Z,19.27
2022-12-01T11:28:32.248Z,20.05
2022-12-01T11:31:06.602Z,18.55
2022-12-01T11:33:44.760Z,18.10
2022-12-01T11:36:21.715Z,20.75
2022-12-01T11:38:50.255Z,18.60
2022-12-01T11:41:29.813Z,20.30
2022-12-01T11:44:02.004Z,23.35
2022-12-01T11:46:36.995Z,22.50
2022-12-01T11:49:05.105Z,19.25
2022-12-01T11:51:38.408Z,21.17
2022-12-01T11:54:14.032Z,20.73
2022-12-01T11:56:43.037Z,21.05
2022-12-01T11:59:16.817Z,21.17
2022-12-01T12:02:17.438Z,18.95
2022-12-01T12:05:00.075Z,20.75
2022-12-01T12:07:38.799Z,18.80
2022-12-01T12:10:21.419Z,18.65
2022-12-01T12:13:06.427Z,18.75
2022-12-01T12:18:33.316Z,18.30
2022-12-01T12:21:16.161Z,18.98
2022-12-01T12:24:14.515Z,19.02
2022-12-01T12:26:50.695Z,19.17
2022-12-01T12:29:32.396Z,19.77
2022-12-01T12:32:13.260Z,19.50
2022-12-01T12:34:53.417Z,17.60
2022-12-01T12:37:27.520Z,18.15
2022-12-01T12:40:19.053Z,18.35
2022-12-01T12:42:56.713Z,17.65
2022-12-01T12:45:31.983Z,16.33
2022-12-01T12:48:11.219Z,16.85
2022-12-01T12:50:46.003Z,16.23
2022-12-01T12:53:19.267Z,18.00
2022-12-01T12:55:50.940Z,18.23
2022-12-01T12:58:25.094Z,19.90
2022-12-01T13:00:59.345Z,19.08
2022-12-01T13:03:35.617Z,18.33
2022-12-01T13:06:11.107Z,19.25
2022-12-01T13:08:45.873Z,19.85
2022-12-01T13:11:24.051Z,18.60
2022-12-01T13:13:59.236Z,19.13
2022-12-01T13:16:34.555Z,17.30
2022-12-01T13:19:08.501Z,19.08
2022-12-01T13:21:43.113Z,19.85
2022-12-01T13:24:18.502Z,18.27
2022-12-01T13:26:53.992Z,20.27
2022-12-01T13:29:25.498Z,17.73
2022-12-01T13:31:55.146Z,20.30
2022-12-01T13:34:27.408Z,21.42
2022-12-01T13:39:27.934Z,17.55
2022-12-01T13:42:01.207Z,18.75
2022-12-01T13:44:33.327Z,20.00
2022-12-01T13:47:05.038Z,18.98
2022-12-01T13:49:39.853Z,19.00
2022-12-01T13:52:31.853Z,18.33
2022-12-01T13:55:28.900Z,18.15
2022-12-01T13:58:28.097Z,21.75
2022-12-01T14:01:35.131Z,18.52
2022-12-01T14:04:25.326Z,18.50
2022-12-01T14:07:34.606Z,17.50
2022-12-01T14:10:30.610Z,16.60
2022-12-01T14:13:04.347Z,17.05
2022-12-01T14:15:36.133Z,16.92
2022-12-01T14:18:07.305Z,18.23
2022-12-01T14:20:44.749Z,16.63
2022-12-01T14:23:17.392Z,15.95
2022-12-01T14:25:59.972Z,17.58
2022-12-01T14:29:08.731Z,17.92
2022-12-01T14:32:19.473Z,16.98
2022-12-01T14:34:51.432Z,16.70
2022-12-01T14:37:21.965Z,16.00
2022-12-01T14:39:59.183Z,17.38
2022-12-01T14:42:51.261Z,16.23
2022-12-01T14:45:25.454Z,14.40
2022-12-01T14:48:00.849Z,14.85
2022-12-01T14:50:35.559Z,19.05
2022-12-01T14:53:10.205Z,16.98
2022-12-01T14:55:42.999Z,19.17
2022-12-01T14:58:18.205Z,17.15
2022-12-01T15:01:03.151Z,15.43
2022-12-01T15:03:36.342Z,17.48
2022-12-01T15:06:04.574Z,15.93
2022-12-01T15:09:10.408Z,16.52
2022-12-01T15:11:26.536Z,17.27
2022-12-01T15:13:56.757Z,19.48
2022-12-01T15:16:26.799Z,16.17
2022-12-01T15:18:54.826Z,17.23
2022-12-01T15:21:27.269Z,18.48
2022-12-01T15:23:57.635Z,15.25
2022-12-01T15:26:30.450Z,17.63
2022-12-01T15:29:17.108Z,16.55
2022-12-01T15:31:48.221Z,16.70
2022-12-01T15:34:18.602Z,15.73
2022-12-01T15:36:48.385Z,14.95
2022-12-01T15:39:19.379Z,16.63
2022-12-01T15:41:54.097Z,15.88
2022-12-01T15:44:28.412Z,18.15
2022-12-01T15:46:56.622Z,15.63
2022-12-01T15:49:30.084Z,22.63
2022-12-01T15:52:07.708Z,20.25
2022-12-01T15:54:36.582Z,16.42
2022-12-01T15:57:07.171Z,19.80
2022-12-01T15:59:39.503Z,22.27
2022-12-01T16:02:28.135Z,20.45
2022-12-01T16:05:05.213Z,19.38
2022-12-01T16:08:11.503Z,25.67
2022-12-01T16:10:29.491Z,56.38
2022-12-01T16:13:30.482Z,51.90
2022-12-01T16:15:59.719Z,48.58
2022-12-01T16:18:31.913Z,44.90
2022-12-01T16:21:04.675Z,49.30
2022-12-01T16:23:34.239Z,49.00
2022-12-01T16:26:08.489Z,48.03
2022-12-01T16:28:37.048Z,46.60
2022-12-01T16:31:12.618Z,44.45
2022-12-01T16:33:43.180Z,47.53
2022-12-01T16:36:11.105Z,46.85
2022-12-01T16:38:39.038Z,45.95
2022-12-01T16:41:17.463Z,40.33
2022-12-01T16:44:05.367Z,38.67
2022-12-01T16:46:35.185Z,42.42
2022-12-01T16:49:03.237Z,43.88
2022-12-01T16:51:54.387Z,38.70
2022-12-01T16:54:19.389Z,41.15
2022-12-01T16:56:47.316Z,37.08
2022-12-01T16:59:15.422Z,40.90
2022-12-01T17:01:44.870Z,38.83
2022-12-01T17:04:12.881Z,38.83
2022-12-01T17:06:40.992Z,33.47
2022-12-01T17:09:08.884Z,35.10
2022-12-01T17:11:36.837Z,34.33
2022-12-01T17:14:04.782Z,37.20
2022-12-01T17:16:32.747Z,33.85
2022-12-01T17:19:02.887Z,33.58
2022-12-01T17:21:31.299Z,33.45
2022-12-01T17:23:59.328Z,32.97
2022-12-01T17:26:27.286Z,34.70
2022-12-01T17:28:56.012Z,34.88
2022-12-01T17:31:24.240Z,34.85
2022-12-01T17:33:52.509Z,32.53
2022-12-01T17:36:21.988Z,36.35
2022-12-01T17:38:50.526Z,32.47
2022-12-01T17:41:21.959Z,33.42
2022-12-01T17:43:50.015Z,30.80
2022-12-01T17:46:18.691Z,35.22
2022-12-01T17:48:47.796Z,30.00
2022-12-01T17:51:16.841Z,30.63
2022-12-01T17:53:46.139Z,28.05
2022-12-01T17:56:16.594Z,30.08
2022-12-01T17:58:44.977Z,31.48
2022-12-01T18:01:15.884Z,30.90
2022-12-01T18:03:44.500Z,27.77
2022-12-01T18:06:13.420Z,30.83
2022-12-01T18:08:41.937Z,30.15
2022-12-01T18:11:14.039Z,28.63
2022-12-01T18:13:43.759Z,28.23
2022-12-01T18:16:14.941Z,29.02
2022-12-01T18:18:43.447Z,31.20
2022-12-01T18:21:13.588Z,29.05
2022-12-01T18:23:41.646Z,28.92
2022-12-01T18:26:16.100Z,28.75
2022-12-01T18:28:45.180Z,28.33
2022-12-01T18:31:16.198Z,26.27
2022-12-01T18:33:46.113Z,26.48
2022-12-01T18:36:17.171Z,27.05
2022-12-01T18:38:46.857Z,27.50
2022-12-01T18:41:17.120Z,30.70
2022-12-01T18:43:45.643Z,26.52
2022-12-01T18:46:15.196Z,24.58
2022-12-01T18:48:46.663Z,25.92
2022-12-01T18:51:15.121Z,29.20
2022-12-01T18:53:45.391Z,30.92
2022-12-01T18:56:15.396Z,24.77
2022-12-01T18:58:44.924Z,26.13
2022-12-01T19:01:21.135Z,29.27
2022-12-01T19:03:49.192Z,26.48
2022-12-01T19:06:17.629Z,26.17
2022-12-01T19:08:45.669Z,24.98
2022-12-01T19:11:13.994Z,24.20
2022-12-01T19:13:42.340Z,26.75
2022-12-01T19:16:13.515Z,29.05
2022-12-01T19:18:41.686Z,26.70
2022-12-01T19:21:11.832Z,27.25
2022-12-01T19:23:40.248Z,25.75
2022-12-01T19:26:11.274Z,28.70
2022-12-01T19:28:40.375Z,27.15
2022-12-01T19:31:09.882Z,29.05
2022-12-01T19:33:39.810Z,28.50
2022-12-01T19:36:09.919Z,28.58
2022-12-01T19:38:38.167Z,28.48
2022-12-01T19:41:07.315Z,25.05
2022-12-01T19:43:36.061Z,28.77
2022-12-01T19:46:06.746Z,26.02
2022-12-01T19:48:35.170Z,26.80
2022-12-01T19:51:05.212Z,28.40
2022-12-01T19:53:34.274Z,25.00
2022-12-01T19:56:03.220Z,31.90
2022-12-01T19:58:34.195Z,28.10
2022-12-01T20:01:06.116Z,25.13
2022-12-01T20:03:34.225Z,26.05
2022-12-01T20:06:05.042Z,27.25
2022-12-01T20:08:36.185Z,30.25
2022-12-01T20:11:04.810Z,30.67
2022-12-01T20:13:33.307Z,27.25
2022-12-01T20:16:05.153Z,30.70
2022-12-01T20:18:33.546Z,31.48
2022-12-01T20:21:07.650Z,32.75
2022-12-01T20:23:36.392Z,30.15
2022-12-01T20:26:06.981Z,33.47
2022-12-01T20:28:36.156Z,28.48
2022-12-01T20:31:05.350Z,33.25
2022-12-01T20:33:33.271Z,27.23
2022-12-01T20:36:01.251Z,31.52
2022-12-01T20:38:30.886Z,26.67
2022-12-01T20:41:00.611Z,30.77
2022-12-01T20:43:29.679Z,32.60
2022-12-01T20:45:57.846Z,30.85
2022-12-01T20:48:26.738Z,31.30
2022-12-01T20:50:54.659Z,32.58
2022-12-01T20:53:23.072Z,33.40
2022-12-01T20:55:53.892Z,30.08
2022-12-01T20:58:21.807Z,28.60
2022-12-01T21:00:50.098Z,32.35
2022-12-01T21:03:20.345Z,37.97
2022-12-01T21:05:48.369Z,31.10
2022-12-01T21:08:16.418Z,32.22
2022-12-01T21:10:46.831Z,29.92
2022-12-01T21:13:38.076Z,34.42
2022-12-01T21:16:12.496Z,32.67
2022-12-01T21:18:50.285Z,32.53
2022-12-01T21:21:24.775Z,33.88
2022-12-01T21:24:14.203Z,35.65
2022-12-01T21:26:46.708Z,33.33
2022-12-01T21:29:24.943Z,32.95
2022-12-01T21:32:01.132Z,33.28
2022-12-01T21:34:30.098Z,35.85
2022-12-01T21:37:02.027Z,31.42
2022-12-01T21:39:31.338Z,35.05
2022-12-01T21:42:12.597Z,33.03
2022-12-01T21:44:41.913Z,36.00
2022-12-01T21:47:20.830Z,33.17
2022-12-01T21:49:52.058Z,32.97
2022-12-01T21:52:22.229Z,30.13
2022-12-01T21:54:50.932Z,31.65
2022-12-01T21:57:42.352Z,33.83
2022-12-01T22:00:29.719Z,43.27
2022-12-01T22:03:36.054Z,40.88
2022-12-01T22:06:31.960Z,45.38
2022-12-01T22:09:02.969Z,44.90
2022-12-01T22:11:32.164Z,45.10
2022-12-01T22:14:14.014Z,40.38
2022-12-01T22:16:45.193Z,43.22
2022-12-01T22:19:25.411Z,42.28
2022-12-01T22:22:01.682Z,40.03
2022-12-01T22:24:40.661Z,43.85
2022-12-01T22:27:28.808Z,40.33
2022-12-01T22:30:01.979Z,39.42
2022-12-01T22:32:37.835Z,40.17
2022-12-01T22:35:29.714Z,35.30
2022-12-01T22:38:13.461Z,39.08
2022-12-01T22:40:44.175Z,38.50
2022-12-01T22:43:25.863Z,41.35
2022-12-01T22:46:11.627Z,38.20
2022-12-01T22:48:42.653Z,40.88
2022-12-01T22:51:24.549Z,42.38
2022-12-01T22:53:58.615Z,35.60
2022-12-01T22:56:37.824Z,35.30
2022-12-01T22:59:19.849Z,33.83
2022-12-01T23:01:50.915Z,38.13
2022-12-01T23:04:26.646Z,37.90
2022-12-01T23:07:01.625Z,37.50
2022-12-01T23:09:35.382Z,35.33
2022-12-01T23:12:17.611Z,37.20
2022-12-01T23:14:48.788Z,34.88
2022-12-01T23:17:20.683Z,35.22
2022-12-01T23:19:51.000Z,39.25
2022-12-01T23:22:19.025Z,38.58
2022-12-01T23:24:47.315Z,33.58
2022-12-01T23:27:18.697Z,36.65
2022-12-01T23:29:46.639Z,35.70
2022-12-01T23:32:16.908Z,32.13
2022-12-01T23:34:44.821Z,36.70
2022-12-01T23:37:32.906Z,31.88
2022-12-01T23:40:01.760Z,34.00
2022-12-01T23:42:29.739Z,32.17
2022-12-01T23:44:57.889Z,37.67
2022-12-01T23:47:28.055Z,32.92
2022-12-01T23:50:00.015Z,33.70
2022-12-01T23:52:36.224Z,31.95
2022-12-01T23:55:17.637Z,29.88
2022-12-01T23:57:45.561Z,31.20
